sensor_id;sensor_type;location;lat;lon;timestamp;temperature;humidity
21487;DHT22;10905;50.822;4.336;2022-11-25T00:00:00;12.40;99.90
21487;DHT22;10905;50.822;4.336;2022-11-25T00:02:26;12.40;99.90
21487;DHT22;10905;50.822;4.336;2022-11-25T00:04:51;12.50;99.90
21487;DHT22;10905;50.822;4.336;2022-11-25T00:07:17;12.40;99.90
21487;DHT22;10905;50.822;4.336;2022-11-25T00:09:43;12.50;99.90
21487;DHT22;10905;50.822;4.336;2022-11-25T00:12:08;12.40;99.90
21487;DHT22;10905;50.822;4.336;2022-11-25T00:14:34;12.40;99.90
21487;DHT22;10905;50.822;4.336;2022-11-25T00:16:59;12.30;99.90
21487;DHT22;10905;50.822;4.336;2022-11-25T00:19:25;12.20;99.90
21487;DHT22;10905;50.822;4.336;2022-11-25T00:21:50;12.00;99.90
21487;DHT22;10905;50.822;4.336;2022-11-25T00:24:16;11.90;99.90
21487;DHT22;10905;50.822;4.336;2022-11-25T00:26:42;11.80;99.90
21487;DHT22;10905;50.822;4.336;2022-11-25T00:29:10;11.80;99.90
21487;DHT22;10905;50.822;4.336;2022-11-25T00:31:37;11.80;99.90
21487;DHT22;10905;50.822;4.336;2022-11-25T00:34:03;11.80;99.90
21487;DHT22;10905;50.822;4.336;2022-11-25T00:36:33;11.80;99.90
21487;DHT22;10905;50.822;4.336;2022-11-25T00:39:02;11.80;99.90
21487;DHT22;10905;50.822;4.336;2022-11-25T00:41:28;11.80;99.90
21487;DHT22;10905;50.822;4.336;2022-11-25T00:44:14;11.70;99.90
21487;DHT22;10905;50.822;4.336;2022-11-25T00:46:58;11.60;99.90
21487;DHT22;10905;50.822;4.336;2022-11-25T00:49:24;11.30;99.90
21487;DHT22;10905;50.822;4.336;2022-11-25T00:51:50;11.00;99.90
21487;DHT22;10905;50.822;4.336;2022-11-25T00:54:16;10.90;99.90
21487;DHT22;10905;50.822;4.336;2022-11-25T00:56:41;10.90;99.90
21487;DHT22;10905;50.822;4.336;2022-11-25T00:59:07;10.80;99.90
21487;DHT22;10905;50.822;4.336;2022-11-25T01:01:33;10.70;99.90
21487;DHT22;10905;50.822;4.336;2022-11-25T01:03:59;10.50;99.90
21487;DHT22;10905;50.822;4.336;2022-11-25T01:06:25;10.40;99.90
21487;DHT22;10905;50.822;4.336;2022-11-25T01:08:50;10.40;99.90
21487;DHT22;10905;50.822;4.336;2022-11-25T01:11:18;10.30;99.90
21487;DHT22;10905;50.822;4.336;2022-11-25T01:13:44;10.30;99.90
21487;DHT22;10905;50.822;4.336;2022-11-25T01:16:12;10.30;99.90
21487;DHT22;10905;50.822;4.336;2022-11-25T01:18:38;10.30;99.90
21487;DHT22;10905;50.822;4.336;2022-11-25T01:21:18;10.20;99.90
21487;DHT22;10905;50.822;4.336;2022-11-25T01:23:45;10.20;99.90
21487;DHT22;10905;50.822;4.336;2022-11-25T01:26:13;10.20;99.90
21487;DHT22;10905;50.822;4.336;2022-11-25T01:28:39;10.20;99.90
21487;DHT22;10905;50.822;4.336;2022-11-25T01:31:07;10.10;99.90
21487;DHT22;10905;50.822;4.336;2022-11-25T01:33:34;10.10;99.90
21487;DHT22;10905;50.822;4.336;2022-11-25T01:36:02;10.10;99.90
21487;DHT22;10905;50.822;4.336;2022-11-25T01:38:28;10.10;99.90
21487;DHT22;10905;50.822;4.336;2022-11-25T01:40:54;10.20;99.90
21487;DHT22;10905;50.822;4.336;2022-11-25T01:43:20;10.20;99.90
21487;DHT22;10905;50.822;4.336;2022-11-25T01:45:45;10.20;99.90
21487;DHT22;10905;50.822;4.336;2022-11-25T01:48:36;10.10;99.90
21487;DHT22;10905;50.822;4.336;2022-11-25T01:51:03;10.10;99.90
21487;DHT22;10905;50.822;4.336;2022-11-25T01:53:29;10.10;99.90
21487;DHT22;10905;50.822;4.336;2022-11-25T01:55:59;10.10;99.90
21487;DHT22;10905;50.822;4.336;2022-11-25T01:58:33;10.00;99.90
21487;DHT22;10905;50.822;4.336;2022-11-25T02:00:59;9.90;99.90
21487;DHT22;10905;50.822;4.336;2022-11-25T02:03:30;9.90;99.90
21487;DHT22;10905;50.822;4.336;2022-11-25T02:08:52;9.70;99.90
21487;DHT22;10905;50.822;4.336;2022-11-25T02:11:20;9.80;99.90
21487;DHT22;10905;50.822;4.336;2022-11-25T02:13:48;9.70;99.90
21487;DHT22;10905;50.822;4.336;2022-11-25T02:16:14;9.80;99.90
21487;DHT22;10905;50.822;4.336;2022-11-25T02:18:40;9.90;99.90
21487;DHT22;10905;50.822;4.336;2022-11-25T02:21:06;9.80;99.90
21487;DHT22;10905;50.822;4.336;2022-11-25T02:26:07;9.90;99.90
21487;DHT22;10905;50.822;4.336;2022-11-25T02:28:33;9.90;99.90
21487;DHT22;10905;50.822;4.336;2022-11-25T02:30:59;9.90;99.90
21487;DHT22;10905;50.822;4.336;2022-11-25T02:33:25;10.00;99.90
21487;DHT22;10905;50.822;4.336;2022-11-25T02:35:59;9.90;99.90
21487;DHT22;10905;50.822;4.336;2022-11-25T02:41:18;9.80;99.90
21487;DHT22;10905;50.822;4.336;2022-11-25T02:43:45;9.90;99.90
21487;DHT22;10905;50.822;4.336;2022-11-25T02:46:13;9.80;99.90
21487;DHT22;10905;50.822;4.336;2022-11-25T02:48:40;9.90;99.90
21487;DHT22;10905;50.822;4.336;2022-11-25T02:51:08;9.90;99.90
21487;DHT22;10905;50.822;4.336;2022-11-25T02:53:34;9.90;99.90
21487;DHT22;10905;50.822;4.336;2022-11-25T02:56:00;9.80;99.90
21487;DHT22;10905;50.822;4.336;2022-11-25T02:58:26;9.90;99.90
21487;DHT22;10905;50.822;4.336;2022-11-25T03:00:52;9.80;99.90
21487;DHT22;10905;50.822;4.336;2022-11-25T03:03:17;9.80;99.90
21487;DHT22;10905;50.822;4.336;2022-11-25T03:05:43;9.70;99.90
21487;DHT22;10905;50.822;4.336;2022-11-25T03:08:09;9.70;99.90
21487;DHT22;10905;50.822;4.336;2022-11-25T03:10:35;9.70;99.90
21487;DHT22;10905;50.822;4.336;2022-11-25T03:13:02;9.60;99.90
21487;DHT22;10905;50.822;4.336;2022-11-25T03:15:27;9.60;99.90
21487;DHT22;10905;50.822;4.336;2022-11-25T03:17:53;9.70;99.90
21487;DHT22;10905;50.822;4.336;2022-11-25T03:20:19;9.70;99.90
21487;DHT22;10905;50.822;4.336;2022-11-25T03:22:45;9.70;99.90
21487;DHT22;10905;50.822;4.336;2022-11-25T03:25:11;9.60;99.90
21487;DHT22;10905;50.822;4.336;2022-11-25T03:27:38;9.70;99.90
21487;DHT22;10905;50.822;4.336;2022-11-25T03:30:06;9.70;99.90
21487;DHT22;10905;50.822;4.336;2022-11-25T03:32:32;9.70;99.90
21487;DHT22;10905;50.822;4.336;2022-11-25T03:34:58;9.70;99.90
21487;DHT22;10905;50.822;4.336;2022-11-25T03:37:24;9.70;99.90
21487;DHT22;10905;50.822;4.336;2022-11-25T03:39:49;9.60;99.90
21487;DHT22;10905;50.822;4.336;2022-11-25T03:42:15;9.60;99.90
21487;DHT22;10905;50.822;4.336;2022-11-25T03:44:40;9.60;99.90
21487;DHT22;10905;50.822;4.336;2022-11-25T03:47:06;9.70;99.90
21487;DHT22;10905;50.822;4.336;2022-11-25T03:49:32;9.70;99.90
21487;DHT22;10905;50.822;4.336;2022-11-25T03:51:57;9.70;99.90
21487;DHT22;10905;50.822;4.336;2022-11-25T03:54:23;9.70;99.90
21487;DHT22;10905;50.822;4.336;2022-11-25T03:56:49;9.70;99.90
21487;DHT22;10905;50.822;4.336;2022-11-25T03:59:14;9.80;99.90
21487;DHT22;10905;50.822;4.336;2022-11-25T04:01:40;9.80;99.90
21487;DHT22;10905;50.822;4.336;2022-11-25T04:04:06;9.70;99.90
21487;DHT22;10905;50.822;4.336;2022-11-25T04:06:31;9.60;99.90
21487;DHT22;10905;50.822;4.336;2022-11-25T04:08:57;9.70;99.90
21487;DHT22;10905;50.822;4.336;2022-11-25T04:11:23;9.70;99.90
21487;DHT22;10905;50.822;4.336;2022-11-25T04:14:12;9.70;99.90
21487;DHT22;10905;50.822;4.336;2022-11-25T04:16:38;9.60;99.90
21487;DHT22;10905;50.822;4.336;2022-11-25T04:19:03;9.60;99.90
21487;DHT22;10905;50.822;4.336;2022-11-25T04:21:29;9.60;99.90
21487;DHT22;10905;50.822;4.336;2022-11-25T04:23:54;9.60;99.90
21487;DHT22;10905;50.822;4.336;2022-11-25T04:26:20;9.70;99.90
21487;DHT22;10905;50.822;4.336;2022-11-25T04:28:45;9.70;99.90
21487;DHT22;10905;50.822;4.336;2022-11-25T04:31:11;9.80;99.90
21487;DHT22;10905;50.822;4.336;2022-11-25T04:33:37;9.80;99.90
21487;DHT22;10905;50.822;4.336;2022-11-25T04:36:02;9.80;99.90
21487;DHT22;10905;50.822;4.336;2022-11-25T04:38:29;9.90;99.90
21487;DHT22;10905;50.822;4.336;2022-11-25T04:40:55;9.90;99.90
21487;DHT22;10905;50.822;4.336;2022-11-25T04:43:20;9.90;99.90
21487;DHT22;10905;50.822;4.336;2022-11-25T04:45:47;9.90;99.90
21487;DHT22;10905;50.822;4.336;2022-11-25T04:48:13;9.90;99.90
21487;DHT22;10905;50.822;4.336;2022-11-25T04:50:38;10.00;99.90
21487;DHT22;10905;50.822;4.336;2022-11-25T04:53:04;9.90;99.90
21487;DHT22;10905;50.822;4.336;2022-11-25T04:55:29;10.00;99.90
21487;DHT22;10905;50.822;4.336;2022-11-25T04:57:55;9.80;99.90
21487;DHT22;10905;50.822;4.336;2022-11-25T05:00:22;9.80;99.90
21487;DHT22;10905;50.822;4.336;2022-11-25T05:02:47;9.90;99.90
21487;DHT22;10905;50.822;4.336;2022-11-25T05:05:13;10.00;99.90
21487;DHT22;10905;50.822;4.336;2022-11-25T05:07:39;10.10;99.90
21487;DHT22;10905;50.822;4.336;2022-11-25T05:10:05;10.00;99.90
21487;DHT22;10905;50.822;4.336;2022-11-25T05:12:31;10.00;99.90
21487;DHT22;10905;50.822;4.336;2022-11-25T05:14:57;9.90;99.90
21487;DHT22;10905;50.822;4.336;2022-11-25T05:17:25;9.80;99.90
21487;DHT22;10905;50.822;4.336;2022-11-25T05:19:51;9.70;99.90
21487;DHT22;10905;50.822;4.336;2022-11-25T05:22:19;9.70;99.90
21487;DHT22;10905;50.822;4.336;2022-11-25T05:24:45;9.70;99.90
21487;DHT22;10905;50.822;4.336;2022-11-25T05:27:11;9.60;99.90
21487;DHT22;10905;50.822;4.336;2022-11-25T05:29:37;9.70;99.90
21487;DHT22;10905;50.822;4.336;2022-11-25T05:32:03;9.70;99.90
21487;DHT22;10905;50.822;4.336;2022-11-25T05:34:29;9.70;99.90
21487;DHT22;10905;50.822;4.336;2022-11-25T05:36:55;9.80;99.90
21487;DHT22;10905;50.822;4.336;2022-11-25T05:39:20;9.70;99.90
21487;DHT22;10905;50.822;4.336;2022-11-25T05:41:46;9.70;99.90
21487;DHT22;10905;50.822;4.336;2022-11-25T05:44:12;9.70;99.90
21487;DHT22;10905;50.822;4.336;2022-11-25T05:46:37;9.60;99.90
21487;DHT22;10905;50.822;4.336;2022-11-25T05:49:03;9.50;99.90
21487;DHT22;10905;50.822;4.336;2022-11-25T05:51:29;9.50;99.90
21487;DHT22;10905;50.822;4.336;2022-11-25T05:53:56;9.40;99.90
21487;DHT22;10905;50.822;4.336;2022-11-25T05:56:22;9.30;99.90
21487;DHT22;10905;50.822;4.336;2022-11-25T05:58:47;9.50;99.90
21487;DHT22;10905;50.822;4.336;2022-11-25T06:01:15;9.50;99.90
21487;DHT22;10905;50.822;4.336;2022-11-25T06:03:41;9.50;99.90
21487;DHT22;10905;50.822;4.336;2022-11-25T06:06:08;9.40;99.90
21487;DHT22;10905;50.822;4.336;2022-11-25T06:08:34;9.50;99.90
21487;DHT22;10905;50.822;4.336;2022-11-25T06:11:10;9.50;99.90
21487;DHT22;10905;50.822;4.336;2022-11-25T06:13:36;9.40;99.90
21487;DHT22;10905;50.822;4.336;2022-11-25T06:16:14;9.40;99.90
21487;DHT22;10905;50.822;4.336;2022-11-25T06:18:40;9.50;99.90
21487;DHT22;10905;50.822;4.336;2022-11-25T06:21:06;9.40;99.90
21487;DHT22;10905;50.822;4.336;2022-11-25T06:23:33;9.30;99.90
21487;DHT22;10905;50.822;4.336;2022-11-25T06:26:20;9.30;99.90
21487;DHT22;10905;50.822;4.336;2022-11-25T06:28:46;9.30;99.90
21487;DHT22;10905;50.822;4.336;2022-11-25T06:31:14;9.30;99.90
21487;DHT22;10905;50.822;4.336;2022-11-25T06:33:40;9.20;99.90
21487;DHT22;10905;50.822;4.336;2022-11-25T06:36:07;9.20;99.90
21487;DHT22;10905;50.822;4.336;2022-11-25T06:38:34;9.20;99.90
21487;DHT22;10905;50.822;4.336;2022-11-25T06:41:01;9.10;99.90
21487;DHT22;10905;50.822;4.336;2022-11-25T06:43:27;9.10;99.90
21487;DHT22;10905;50.822;4.336;2022-11-25T06:45:53;9.30;99.90
21487;DHT22;10905;50.822;4.336;2022-11-25T06:48:18;9.20;99.90
21487;DHT22;10905;50.822;4.336;2022-11-25T06:50:44;9.20;99.90
21487;DHT22;10905;50.822;4.336;2022-11-25T06:53:09;9.20;99.90
21487;DHT22;10905;50.822;4.336;2022-11-25T06:55:35;9.30;99.90
21487;DHT22;10905;50.822;4.336;2022-11-25T06:58:00;9.40;99.90
21487;DHT22;10905;50.822;4.336;2022-11-25T07:00:26;9.20;99.90
21487;DHT22;10905;50.822;4.336;2022-11-25T07:02:52;9.20;99.90
21487;DHT22;10905;50.822;4.336;2022-11-25T07:05:17;9.10;99.90
21487;DHT22;10905;50.822;4.336;2022-11-25T07:07:43;9.10;99.90
21487;DHT22;10905;50.822;4.336;2022-11-25T07:10:09;9.10;99.90
21487;DHT22;10905;50.822;4.336;2022-11-25T07:12:34;9.10;99.90
21487;DHT22;10905;50.822;4.336;2022-11-25T07:15:00;9.20;99.90
21487;DHT22;10905;50.822;4.336;2022-11-25T07:17:26;9.20;99.90
21487;DHT22;10905;50.822;4.336;2022-11-25T07:19:51;9.10;99.90
21487;DHT22;10905;50.822;4.336;2022-11-25T07:22:17;9.10;99.90
21487;DHT22;10905;50.822;4.336;2022-11-25T07:24:42;9.20;99.90
21487;DHT22;10905;50.822;4.336;2022-11-25T07:27:08;9.00;99.90
21487;DHT22;10905;50.822;4.336;2022-11-25T07:29:34;9.10;99.90
21487;DHT22;10905;50.822;4.336;2022-11-25T07:32:02;9.20;99.90
21487;DHT22;10905;50.822;4.336;2022-11-25T07:34:28;9.10;99.90
21487;DHT22;10905;50.822;4.336;2022-11-25T07:36:53;9.10;99.90
21487;DHT22;10905;50.822;4.336;2022-11-25T07:39:21;9.10;99.90
21487;DHT22;10905;50.822;4.336;2022-11-25T07:41:51;9.10;99.90
21487;DHT22;10905;50.822;4.336;2022-11-25T07:44:17;9.20;99.90
21487;DHT22;10905;50.822;4.336;2022-11-25T07:46:45;9.10;99.90
21487;DHT22;10905;50.822;4.336;2022-11-25T07:49:15;9.20;99.90
21487;DHT22;10905;50.822;4.336;2022-11-25T07:51:46;9.20;99.90
21487;DHT22;10905;50.822;4.336;2022-11-25T07:54:12;9.30;99.90
21487;DHT22;10905;50.822;4.336;2022-11-25T07:56:40;9.20;99.90
21487;DHT22;10905;50.822;4.336;2022-11-25T07:59:09;9.10;99.90
21487;DHT22;10905;50.822;4.336;2022-11-25T08:01:35;9.20;99.90
21487;DHT22;10905;50.822;4.336;2022-11-25T08:04:01;9.30;99.90
21487;DHT22;10905;50.822;4.336;2022-11-25T08:06:27;9.30;99.90
21487;DHT22;10905;50.822;4.336;2022-11-25T08:08:55;9.20;99.90
21487;DHT22;10905;50.822;4.336;2022-11-25T08:11:24;9.30;99.90
21487;DHT22;10905;50.822;4.336;2022-11-25T08:13:50;9.30;99.90
21487;DHT22;10905;50.822;4.336;2022-11-25T08:16:17;9.20;99.90
21487;DHT22;10905;50.822;4.336;2022-11-25T08:18:43;9.30;99.90
21487;DHT22;10905;50.822;4.336;2022-11-25T08:21:10;9.30;99.90
21487;DHT22;10905;50.822;4.336;2022-11-25T08:23:38;9.30;99.90
21487;DHT22;10905;50.822;4.336;2022-11-25T08:26:12;9.40;99.90
21487;DHT22;10905;50.822;4.336;2022-11-25T08:28:38;9.50;99.90
21487;DHT22;10905;50.822;4.336;2022-11-25T08:31:08;9.60;99.90
21487;DHT22;10905;50.822;4.336;2022-11-25T08:33:34;9.60;99.90
21487;DHT22;10905;50.822;4.336;2022-11-25T08:35:59;9.60;99.90
21487;DHT22;10905;50.822;4.336;2022-11-25T08:38:26;9.70;99.90
21487;DHT22;10905;50.822;4.336;2022-11-25T08:40:51;9.70;99.90
21487;DHT22;10905;50.822;4.336;2022-11-25T08:43:18;9.60;99.90
21487;DHT22;10905;50.822;4.336;2022-11-25T08:45:46;9.60;99.90
21487;DHT22;10905;50.822;4.336;2022-11-25T08:48:12;9.70;99.90
21487;DHT22;10905;50.822;4.336;2022-11-25T08:50:38;9.70;99.90
21487;DHT22;10905;50.822;4.336;2022-11-25T08:53:04;9.60;99.90
21487;DHT22;10905;50.822;4.336;2022-11-25T08:55:29;9.50;99.90
21487;DHT22;10905;50.822;4.336;2022-11-25T08:57:56;9.50;99.90
21487;DHT22;10905;50.822;4.336;2022-11-25T09:00:22;9.60;99.90
21487;DHT22;10905;50.822;4.336;2022-11-25T09:02:48;9.60;99.90
21487;DHT22;10905;50.822;4.336;2022-11-25T09:05:16;9.70;99.90
21487;DHT22;10905;50.822;4.336;2022-11-25T09:07:42;9.70;99.90
21487;DHT22;10905;50.822;4.336;2022-11-25T09:10:11;9.70;99.90
21487;DHT22;10905;50.822;4.336;2022-11-25T09:12:37;9.70;99.90
21487;DHT22;10905;50.822;4.336;2022-11-25T09:15:04;9.60;99.90
21487;DHT22;10905;50.822;4.336;2022-11-25T09:17:30;9.70;99.90
21487;DHT22;10905;50.822;4.336;2022-11-25T09:19:55;9.70;99.90
21487;DHT22;10905;50.822;4.336;2022-11-25T09:22:21;9.80;99.90
21487;DHT22;10905;50.822;4.336;2022-11-25T09:24:47;9.90;99.90
21487;DHT22;10905;50.822;4.336;2022-11-25T09:27:13;9.80;99.90
21487;DHT22;10905;50.822;4.336;2022-11-25T09:29:38;9.90;99.90
21487;DHT22;10905;50.822;4.336;2022-11-25T09:32:04;9.90;99.90
21487;DHT22;10905;50.822;4.336;2022-11-25T09:34:30;10.00;99.90
21487;DHT22;10905;50.822;4.336;2022-11-25T09:36:55;9.90;99.90
21487;DHT22;10905;50.822;4.336;2022-11-25T09:39:21;9.80;99.90
21487;DHT22;10905;50.822;4.336;2022-11-25T09:42:11;9.80;99.90
21487;DHT22;10905;50.822;4.336;2022-11-25T09:45:22;9.90;99.90
21487;DHT22;10905;50.822;4.336;2022-11-25T09:50:55;9.90;99.90
21487;DHT22;10905;50.822;4.336;2022-11-25T09:55:53;10.00;99.90
21487;DHT22;10905;50.822;4.336;2022-11-25T09:58:38;10.10;99.90
21487;DHT22;10905;50.822;4.336;2022-11-25T10:01:13;10.20;99.90
21487;DHT22;10905;50.822;4.336;2022-11-25T10:08:49;10.40;99.90
21487;DHT22;10905;50.822;4.336;2022-11-25T10:17:36;10.40;99.90
21487;DHT22;10905;50.822;4.336;2022-11-25T10:22:33;10.30;99.90
21487;DHT22;10905;50.822;4.336;2022-11-25T10:25:24;10.20;99.90
21487;DHT22;10905;50.822;4.336;2022-11-25T10:28:02;10.20;99.90
21487;DHT22;10905;50.822;4.336;2022-11-25T10:38:42;10.30;99.90
21487;DHT22;10905;50.822;4.336;2022-11-25T10:41:20;10.30;99.90
21487;DHT22;10905;50.822;4.336;2022-11-25T10:43:46;10.30;99.90
21487;DHT22;10905;50.822;4.336;2022-11-25T10:49:14;10.30;99.90
21487;DHT22;10905;50.822;4.336;2022-11-25T10:51:46;10.40;99.90
21487;DHT22;10905;50.822;4.336;2022-11-25T10:54:23;10.50;99.90
21487;DHT22;10905;50.822;4.336;2022-11-25T10:56:58;10.50;99.90
21487;DHT22;10905;50.822;4.336;2022-11-25T10:59:36;10.50;99.90
21487;DHT22;10905;50.822;4.336;2022-11-25T11:02:23;10.60;99.90
21487;DHT22;10905;50.822;4.336;2022-11-25T11:07:36;10.70;99.90
21487;DHT22;10905;50.822;4.336;2022-11-25T11:12:33;10.70;99.90
21487;DHT22;10905;50.822;4.336;2022-11-25T11:15:20;10.70;99.90
21487;DHT22;10905;50.822;4.336;2022-11-25T11:17:46;10.80;99.90
21487;DHT22;10905;50.822;4.336;2022-11-25T11:20:23;10.90;99.90
21487;DHT22;10905;50.822;4.336;2022-11-25T11:23:10;10.90;99.90
21487;DHT22;10905;50.822;4.336;2022-11-25T11:25:38;10.90;99.90
21487;DHT22;10905;50.822;4.336;2022-11-25T11:28:25;11.00;99.90
21487;DHT22;10905;50.822;4.336;2022-11-25T11:31:00;11.00;99.90
21487;DHT22;10905;50.822;4.336;2022-11-25T11:33:31;11.10;99.90
21487;DHT22;10905;50.822;4.336;2022-11-25T11:36:14;11.10;99.90
21487;DHT22;10905;50.822;4.336;2022-11-25T11:44:22;11.00;99.90
21487;DHT22;10905;50.822;4.336;2022-11-25T11:53:01;11.00;99.90
21487;DHT22;10905;50.822;4.336;2022-11-25T11:58:18;11.00;99.90
21487;DHT22;10905;50.822;4.336;2022-11-25T12:01:02;11.10;99.90
21487;DHT22;10905;50.822;4.336;2022-11-25T12:03:39;11.20;99.90
21487;DHT22;10905;50.822;4.336;2022-11-25T12:06:09;11.10;99.90
21487;DHT22;10905;50.822;4.336;2022-11-25T12:11:14;11.20;99.90
21487;DHT22;10905;50.822;4.336;2022-11-25T12:14:16;11.30;99.90
21487;DHT22;10905;50.822;4.336;2022-11-25T12:16:53;11.20;99.90
21487;DHT22;10905;50.822;4.336;2022-11-25T12:19:40;11.20;99.90
21487;DHT22;10905;50.822;4.336;2022-11-25T12:27:23;11.20;99.90
21487;DHT22;10905;50.822;4.336;2022-11-25T12:30:02;11.20;99.90
21487;DHT22;10905;50.822;4.336;2022-11-25T12:32:51;11.20;99.90
21487;DHT22;10905;50.822;4.336;2022-11-25T12:38:11;11.30;99.90
21487;DHT22;10905;50.822;4.336;2022-11-25T12:40:52;11.30;99.90
21487;DHT22;10905;50.822;4.336;2022-11-25T12:43:41;11.30;99.90
21487;DHT22;10905;50.822;4.336;2022-11-25T12:46:21;11.30;99.90
21487;DHT22;10905;50.822;4.336;2022-11-25T12:48:48;11.40;99.90
21487;DHT22;10905;50.822;4.336;2022-11-25T12:51:36;11.40;99.90
21487;DHT22;10905;50.822;4.336;2022-11-25T12:57:26;11.50;99.90
21487;DHT22;10905;50.822;4.336;2022-11-25T13:14:06;11.60;99.90
21487;DHT22;10905;50.822;4.336;2022-11-25T13:16:36;11.60;99.90
21487;DHT22;10905;50.822;4.336;2022-11-25T13:19:08;11.70;99.90
21487;DHT22;10905;50.822;4.336;2022-11-25T13:21:36;11.60;99.90
21487;DHT22;10905;50.822;4.336;2022-11-25T13:24:02;11.70;99.90
21487;DHT22;10905;50.822;4.336;2022-11-25T13:28:53;11.60;99.90
21487;DHT22;10905;50.822;4.336;2022-11-25T13:36:45;11.90;99.90
21487;DHT22;10905;50.822;4.336;2022-11-25T13:39:32;11.90;99.90
21487;DHT22;10905;50.822;4.336;2022-11-25T13:41:59;11.80;99.90
21487;DHT22;10905;50.822;4.336;2022-11-25T13:44:49;11.80;99.90
21487;DHT22;10905;50.822;4.336;2022-11-25T13:49:57;12.00;99.90
21487;DHT22;10905;50.822;4.336;2022-11-25T13:52:35;12.10;99.90
21487;DHT22;10905;50.822;4.336;2022-11-25T13:55:09;12.20;99.90
21487;DHT22;10905;50.822;4.336;2022-11-25T13:58:12;12.10;99.90
21487;DHT22;10905;50.822;4.336;2022-11-25T14:00:46;12.20;99.90
21487;DHT22;10905;50.822;4.336;2022-11-25T14:13:49;11.90;99.90
21487;DHT22;10905;50.822;4.336;2022-11-25T14:19:42;12.00;99.90
21487;DHT22;10905;50.822;4.336;2022-11-25T14:24:51;12.20;99.90
21487;DHT22;10905;50.822;4.336;2022-11-25T14:27:23;12.20;99.90
21487;DHT22;10905;50.822;4.336;2022-11-25T14:30:03;12.30;99.90
21487;DHT22;10905;50.822;4.336;2022-11-25T14:35:07;12.10;99.90
21487;DHT22;10905;50.822;4.336;2022-11-25T14:37:59;12.00;99.90
21487;DHT22;10905;50.822;4.336;2022-11-25T14:40:41;11.90;99.90
21487;DHT22;10905;50.822;4.336;2022-11-25T14:43:16;11.90;99.90
21487;DHT22;10905;50.822;4.336;2022-11-25T14:45:42;11.80;99.90
21487;DHT22;10905;50.822;4.336;2022-11-25T14:48:19;11.70;99.90
21487;DHT22;10905;50.822;4.336;2022-11-25T14:50:57;11.80;99.90
21487;DHT22;10905;50.822;4.336;2022-11-25T14:53:23;11.80;99.90
21487;DHT22;10905;50.822;4.336;2022-11-25T14:55:51;11.80;99.90
21487;DHT22;10905;50.822;4.336;2022-11-25T14:58:18;11.90;99.90
21487;DHT22;10905;50.822;4.336;2022-11-25T15:01:07;12.00;99.90
21487;DHT22;10905;50.822;4.336;2022-11-25T15:03:33;12.00;99.90
21487;DHT22;10905;50.822;4.336;2022-11-25T15:06:05;12.00;99.90
21487;DHT22;10905;50.822;4.336;2022-11-25T15:08:39;12.00;99.90
21487;DHT22;10905;50.822;4.336;2022-11-25T15:11:21;12.00;99.90
21487;DHT22;10905;50.822;4.336;2022-11-25T15:16:34;11.80;99.90
21487;DHT22;10905;50.822;4.336;2022-11-25T15:19:02;11.80;99.90
21487;DHT22;10905;50.822;4.336;2022-11-25T15:23:56;11.70;99.90
21487;DHT22;10905;50.822;4.336;2022-11-25T15:26:25;11.60;99.90
21487;DHT22;10905;50.822;4.336;2022-11-25T15:28:59;11.60;99.90
21487;DHT22;10905;50.822;4.336;2022-11-25T15:31:28;11.60;99.90
21487;DHT22;10905;50.822;4.336;2022-11-25T15:33:57;11.50;99.90
21487;DHT22;10905;50.822;4.336;2022-11-25T15:36:24;11.50;99.90
21487;DHT22;10905;50.822;4.336;2022-11-25T15:38:50;11.40;99.90
21487;DHT22;10905;50.822;4.336;2022-11-25T15:41:19;11.40;99.90
21487;DHT22;10905;50.822;4.336;2022-11-25T15:43:48;11.40;99.90
21487;DHT22;10905;50.822;4.336;2022-11-25T15:46:16;11.40;99.90
21487;DHT22;10905;50.822;4.336;2022-11-25T15:48:46;11.40;99.90
21487;DHT22;10905;50.822;4.336;2022-11-25T15:54:06;11.40;99.90
21487;DHT22;10905;50.822;4.336;2022-11-25T15:56:38;11.40;99.90
21487;DHT22;10905;50.822;4.336;2022-11-25T15:59:04;11.30;99.90
21487;DHT22;10905;50.822;4.336;2022-11-25T16:01:30;11.20;99.90
21487;DHT22;10905;50.822;4.336;2022-11-25T16:04:10;11.10;99.90
21487;DHT22;10905;50.822;4.336;2022-11-25T16:06:56;11.10;99.90
21487;DHT22;10905;50.822;4.336;2022-11-25T16:09:24;11.00;99.90
21487;DHT22;10905;50.822;4.336;2022-11-25T16:11:51;11.00;99.90
21487;DHT22;10905;50.822;4.336;2022-11-25T16:14:26;11.00;99.90
21487;DHT22;10905;50.822;4.336;2022-11-25T16:16:59;11.00;99.90
21487;DHT22;10905;50.822;4.336;2022-11-25T16:19:32;10.90;99.90
21487;DHT22;10905;50.822;4.336;2022-11-25T16:22:02;10.90;99.90
21487;DHT22;10905;50.822;4.336;2022-11-25T16:24:32;10.80;99.90
21487;DHT22;10905;50.822;4.336;2022-11-25T16:27:00;10.90;99.90
21487;DHT22;10905;50.822;4.336;2022-11-25T16:32:28;10.90;99.90
21487;DHT22;10905;50.822;4.336;2022-11-25T16:35:12;10.80;99.90
21487;DHT22;10905;50.822;4.336;2022-11-25T16:37:39;10.70;99.90
21487;DHT22;10905;50.822;4.336;2022-11-25T16:40:05;10.90;99.90
21487;DHT22;10905;50.822;4.336;2022-11-25T16:42:31;10.80;99.90
21487;DHT22;10905;50.822;4.336;2022-11-25T16:44:59;10.70;99.90
21487;DHT22;10905;50.822;4.336;2022-11-25T16:47:24;10.60;99.90
21487;DHT22;10905;50.822;4.336;2022-11-25T16:49:51;10.70;99.90
21487;DHT22;10905;50.822;4.336;2022-11-25T16:52:17;10.60;99.90
21487;DHT22;10905;50.822;4.336;2022-11-25T16:54:43;10.70;99.90
21487;DHT22;10905;50.822;4.336;2022-11-25T16:57:16;10.70;99.90
21487;DHT22;10905;50.822;4.336;2022-11-25T16:59:43;10.60;99.90
21487;DHT22;10905;50.822;4.336;2022-11-25T17:02:18;10.60;99.90
21487;DHT22;10905;50.822;4.336;2022-11-25T17:04:45;10.60;99.90
21487;DHT22;10905;50.822;4.336;2022-11-25T17:07:12;10.50;99.90
21487;DHT22;10905;50.822;4.336;2022-11-25T17:09:38;10.50;99.90
21487;DHT22;10905;50.822;4.336;2022-11-25T17:12:05;10.40;99.90
21487;DHT22;10905;50.822;4.336;2022-11-25T17:14:33;10.40;99.90
21487;DHT22;10905;50.822;4.336;2022-11-25T17:17:00;10.40;99.90
21487;DHT22;10905;50.822;4.336;2022-11-25T17:19:26;10.50;99.90
21487;DHT22;10905;50.822;4.336;2022-11-25T17:21:52;10.40;99.90
21487;DHT22;10905;50.822;4.336;2022-11-25T17:24:19;10.30;99.90
21487;DHT22;10905;50.822;4.336;2022-11-25T17:26:49;10.30;99.90
21487;DHT22;10905;50.822;4.336;2022-11-25T17:29:18;10.20;99.90
21487;DHT22;10905;50.822;4.336;2022-11-25T17:31:44;10.20;99.90
21487;DHT22;10905;50.822;4.336;2022-11-25T17:34:13;10.20;99.90
21487;DHT22;10905;50.822;4.336;2022-11-25T17:36:39;10.20;99.90
21487;DHT22;10905;50.822;4.336;2022-11-25T17:39:05;10.10;99.90
21487;DHT22;10905;50.822;4.336;2022-11-25T17:41:30;10.10;99.90
21487;DHT22;10905;50.822;4.336;2022-11-25T17:43:58;10.20;99.90
21487;DHT22;10905;50.822;4.336;2022-11-25T17:46:25;10.10;99.90
21487;DHT22;10905;50.822;4.336;2022-11-25T17:48:53;10.00;99.90
21487;DHT22;10905;50.822;4.336;2022-11-25T17:51:19;10.00;99.90
21487;DHT22;10905;50.822;4.336;2022-11-25T17:53:45;10.00;99.90
21487;DHT22;10905;50.822;4.336;2022-11-25T17:56:22;9.90;99.90